createdAt,value
2023-03-08T00:01:29.843Z,2.95
2023-03-08T00:03:58.779Z,2.93
2023-03-08T00:06:28.273Z,2.89
2023-03-08T00:09:01.945Z,2.86
2023-03-08T00:11:30.918Z,2.83
2023-03-08T00:13:59.333Z,2.80
2023-03-08T00:16:27.764Z,2.78
2023-03-08T00:18:56.084Z,2.74
2023-03-08T00:21:24.452Z,2.70
2023-03-08T00:23:54.354Z,2.63
2023-03-08T00:26:23.178Z,2.59
2023-03-08T00:28:52.856Z,2.54
2023-03-08T00:31:21.713Z,2.51
2023-03-08T00:33:55.332Z,2.47
2023-03-08T00:36:23.930Z,2.43
2023-03-08T00:38:52.641Z,2.37
2023-03-08T00:41:21.131Z,2.33
2023-03-08T00:43:50.293Z,2.29
2023-03-08T00:46:18.709Z,2.28
2023-03-08T00:48:47.193Z,2.25
2023-03-08T00:51:17.605Z,2.23
2023-03-08T00:53:46.179Z,2.21
2023-03-08T00:56:14.980Z,2.20
2023-03-08T00:58:43.579Z,2.19
2023-03-08T01:01:16.921Z,2.17
2023-03-08T01:03:45.605Z,2.11
2023-03-08T01:06:16.038Z,2.07
2023-03-08T01:08:44.842Z,2.05
2023-03-08T01:11:26.986Z,2.02
2023-03-08T01:13:55.612Z,2.00
2023-03-08T01:16:28.866Z,1.98
2023-03-08T01:18:58.180Z,1.97
2023-03-08T01:21:28.920Z,1.94
2023-03-08T01:23:58.290Z,1.93
2023-03-08T01:26:27.933Z,1.92
2023-03-08T01:28:57.619Z,1.89
2023-03-08T01:31:29.965Z,1.87
2023-03-08T01:33:58.765Z,1.85
2023-03-08T01:36:28.654Z,1.85
2023-03-08T01:39:00.361Z,1.85
2023-03-08T01:41:31.506Z,1.83
2023-03-08T01:44:00.332Z,1.81
2023-03-08T01:46:35.943Z,1.79
2023-03-08T01:49:13.454Z,1.77
2023-03-08T01:52:07.070Z,1.75
2023-03-08T01:54:55.160Z,1.71
2023-03-08T01:57:49.620Z,1.66
2023-03-08T02:00:25.336Z,1.62
2023-03-08T02:03:08.436Z,1.59
2023-03-08T02:05:40.211Z,1.56
2023-03-08T02:08:08.800Z,1.55
2023-03-08T02:10:38.346Z,1.53
2023-03-08T02:13:09.213Z,1.51
2023-03-08T02:15:37.570Z,1.48
2023-03-08T02:18:05.895Z,1.46
2023-03-08T02:20:40.534Z,1.44
2023-03-08T02:23:27.219Z,1.41
2023-03-08T02:26:05.674Z,1.38
2023-03-08T02:28:34.369Z,1.36
2023-03-08T02:31:02.785Z,1.35
2023-03-08T02:33:32.406Z,1.32
2023-03-08T02:36:06.237Z,1.32
2023-03-08T02:38:34.655Z,1.31
2023-03-08T02:41:03.000Z,1.29
2023-03-08T02:43:31.440Z,1.28
2023-03-08T02:45:59.915Z,1.26
2023-03-08T02:48:28.366Z,1.24
2023-03-08T02:50:56.682Z,1.22
2023-03-08T02:53:25.009Z,1.20
2023-03-08T02:55:53.317Z,1.18
2023-03-08T02:58:21.644Z,1.16
2023-03-08T03:00:50.003Z,1.15
2023-03-08T03:03:18.355Z,1.14
2023-03-08T03:05:46.797Z,1.10
2023-03-08T03:08:15.189Z,1.10
2023-03-08T03:10:43.643Z,1.10
2023-03-08T03:13:11.983Z,1.09
2023-03-08T03:15:40.541Z,1.09
2023-03-08T03:18:08.927Z,1.08
2023-03-08T03:20:37.448Z,1.06
2023-03-08T03:23:06.469Z,1.04
2023-03-08T03:25:38.268Z,1.04
2023-03-08T03:28:06.628Z,1.04
2023-03-08T03:30:34.974Z,1.04
2023-03-08T03:33:03.310Z,1.04
2023-03-08T03:35:31.653Z,1.02
2023-03-08T03:38:00.000Z,1.00
2023-03-08T03:40:28.341Z,0.99
2023-03-08T03:42:56.641Z,0.99
2023-03-08T03:45:25.006Z,1.01
2023-03-08T03:47:53.365Z,1.02
2023-03-08T03:50:21.746Z,1.01
2023-03-08T03:52:50.169Z,1.00
2023-03-08T03:55:18.507Z,0.99
2023-03-08T03:57:46.922Z,0.97
2023-03-08T04:00:16.060Z,0.97
2023-03-08T04:02:44.369Z,0.96
2023-03-08T04:05:12.793Z,0.96
2023-03-08T04:07:41.070Z,0.95
2023-03-08T04:10:10.159Z,0.95
2023-03-08T04:12:38.505Z,0.96
2023-03-08T04:15:07.911Z,0.97
2023-03-08T04:17:36.265Z,0.99
2023-03-08T04:20:06.193Z,0.99
2023-03-08T04:22:34.514Z,1.00
2023-03-08T04:25:04.040Z,1.01
2023-03-08T04:27:32.411Z,1.01
2023-03-08T04:30:00.716Z,1.01
2023-03-08T04:32:31.642Z,1.01
2023-03-08T04:35:00.184Z,1.01
2023-03-08T04:37:28.650Z,1.01
2023-03-08T04:39:57.019Z,1.03
2023-03-08T04:42:25.968Z,1.03
2023-03-08T04:44:54.504Z,1.04
2023-03-08T04:47:22.835Z,1.04
2023-03-08T04:49:51.287Z,1.04
2023-03-08T04:52:19.630Z,1.03
2023-03-08T04:54:48.098Z,1.03
2023-03-08T04:57:16.448Z,1.03
2023-03-08T04:59:45.219Z,1.04
2023-03-08T05:02:13.553Z,1.05
2023-03-08T05:04:42.072Z,1.06
2023-03-08T05:07:10.476Z,1.07
2023-03-08T05:09:38.781Z,1.07
2023-03-08T05:12:07.711Z,1.08
2023-03-08T05:14:36.223Z,1.09
2023-03-08T05:17:04.584Z,1.11
2023-03-08T05:19:32.892Z,1.11
2023-03-08T05:22:01.189Z,1.12
2023-03-08T05:24:29.539Z,1.13
2023-03-08T05:26:57.898Z,1.13
2023-03-08T05:29:26.212Z,1.14
2023-03-08T05:31:54.573Z,1.15
2023-03-08T05:34:22.900Z,1.16
2023-03-08T05:36:51.196Z,1.17
2023-03-08T05:39:19.629Z,1.19
2023-03-08T05:41:48.754Z,1.20
2023-03-08T05:44:17.093Z,1.22
2023-03-08T05:46:45.420Z,1.24
2023-03-08T05:49:13.764Z,1.25
2023-03-08T05:51:42.442Z,1.26
2023-03-08T05:54:10.730Z,1.26
2023-03-08T05:56:39.077Z,1.29
2023-03-08T05:59:07.427Z,1.32
2023-03-08T06:01:35.776Z,1.35
2023-03-08T06:04:04.233Z,1.39
2023-03-08T06:06:34.097Z,1.43
2023-03-08T06:09:03.293Z,1.47
2023-03-08T06:11:31.636Z,1.50
2023-03-08T06:13:59.931Z,1.54
2023-03-08T06:16:28.291Z,1.56
2023-03-08T06:18:56.580Z,1.61
2023-03-08T06:21:24.914Z,1.65
2023-03-08T06:23:53.336Z,1.70
2023-03-08T06:26:21.726Z,1.77
2023-03-08T06:28:49.988Z,1.82
2023-03-08T06:31:19.126Z,1.86
2023-03-08T06:33:47.656Z,1.92
2023-03-08T06:36:20.536Z,1.98
2023-03-08T06:38:49.507Z,2.08
2023-03-08T06:41:20.322Z,2.16
2023-03-08T06:43:48.998Z,2.24
2023-03-08T06:46:19.074Z,2.33
2023-03-08T06:48:49.105Z,2.39
2023-03-08T06:51:19.027Z,2.46
2023-03-08T06:53:47.836Z,2.52
2023-03-08T06:56:17.973Z,2.57
2023-03-08T06:58:46.545Z,2.61
2023-03-08T07:01:15.035Z,2.67
2023-03-08T07:03:45.361Z,2.73
2023-03-08T07:06:13.719Z,2.77
2023-03-08T07:08:42.260Z,2.83
2023-03-08T07:11:10.978Z,2.89
2023-03-08T07:13:39.514Z,2.93
2023-03-08T07:16:11.160Z,2.96
2023-03-08T07:18:40.673Z,3.03
2023-03-08T07:21:10.345Z,3.07
2023-03-08T07:23:38.910Z,3.14
2023-03-08T07:26:08.994Z,3.22
2023-03-08T07:28:37.472Z,3.28
2023-03-08T07:31:06.282Z,3.39
2023-03-08T07:33:34.653Z,3.45
2023-03-08T07:36:03.288Z,3.51
2023-03-08T07:38:31.787Z,3.60
2023-03-08T07:41:00.112Z,3.70
2023-03-08T07:43:28.539Z,3.79
2023-03-08T07:46:01.500Z,3.84
2023-03-08T07:48:32.095Z,3.92
2023-03-08T07:51:09.605Z,4.02
2023-03-08T07:53:38.590Z,4.11
2023-03-08T07:56:07.591Z,4.14
2023-03-08T07:58:36.007Z,4.19
2023-03-08T08:01:13.483Z,4.26
2023-03-08T08:03:42.086Z,4.30
2023-03-08T08:06:10.554Z,4.34
2023-03-08T08:08:39.073Z,4.38
2023-03-08T08:11:16.838Z,4.43
2023-03-08T08:13:46.981Z,4.53
2023-03-08T08:16:16.936Z,4.62
2023-03-08T08:18:45.979Z,4.70
2023-03-08T08:21:16.556Z,4.78
2023-03-08T08:23:45.254Z,4.84
2023-03-08T08:26:18.039Z,4.88
2023-03-08T08:28:53.288Z,4.90
2023-03-08T08:31:25.792Z,4.91
2023-03-08T08:33:54.236Z,4.90
2023-03-08T08:36:23.112Z,4.90
2023-03-08T08:38:52.307Z,4.91
2023-03-08T08:41:23.381Z,4.95
2023-03-08T08:43:52.348Z,5.01
2023-03-08T08:46:20.688Z,5.05
2023-03-08T08:48:49.102Z,5.09
2023-03-08T08:51:17.529Z,5.12
2023-03-08T08:53:45.867Z,5.21
2023-03-08T08:56:26.649Z,5.37
2023-03-08T08:59:03.351Z,5.51
2023-03-08T09:01:33.392Z,5.69
2023-03-08T09:04:01.776Z,5.87
2023-03-08T09:06:31.080Z,6.02
2023-03-08T09:08:59.998Z,6.21
2023-03-08T09:11:29.144Z,6.40
2023-03-08T09:13:57.838Z,6.61
2023-03-08T09:16:32.539Z,6.72
2023-03-08T09:19:04.585Z,6.75
2023-03-08T09:21:33.680Z,6.81
2023-03-08T09:24:05.917Z,6.92
2023-03-08T09:26:35.468Z,7.01
2023-03-08T09:29:07.656Z,7.07
2023-03-08T09:31:38.196Z,7.12
2023-03-08T09:34:09.365Z,7.09
2023-03-08T09:36:39.742Z,7.12
2023-03-08T09:39:11.268Z,7.18
2023-03-08T09:41:59.235Z,7.20
2023-03-08T09:45:07.369Z,7.13
2023-03-08T09:47:48.279Z,7.08
2023-03-08T09:50:52.403Z,7.04
2023-03-08T09:54:07.158Z,7.07
2023-03-08T09:56:50.050Z,7.13
2023-03-08T09:59:52.432Z,7.18
2023-03-08T10:03:14.496Z,7.21
2023-03-08T10:05:58.283Z,7.24
2023-03-08T10:08:38.320Z,7.17
2023-03-08T10:11:20.614Z,7.08
2023-03-08T10:13:54.253Z,7.02
2023-03-08T10:16:35.147Z,6.97
2023-03-08T10:19:27.725Z,6.92
2023-03-08T10:22:00.669Z,6.84
2023-03-08T10:24:43.872Z,6.74
2023-03-08T10:27:28.603Z,6.61
2023-03-08T10:30:00.179Z,6.54
2023-03-08T10:32:29.660Z,6.48
2023-03-08T10:35:04.770Z,6.46
2023-03-08T10:37:34.386Z,6.48
2023-03-08T10:40:19.059Z,6.54
2023-03-08T10:43:00.957Z,6.60
2023-03-08T10:45:30.339Z,6.65
2023-03-08T10:48:04.713Z,6.63
2023-03-08T10:50:37.704Z,6.62
2023-03-08T10:53:16.699Z,6.60
2023-03-08T10:55:51.219Z,6.52
2023-03-08T10:58:31.937Z,6.46
2023-03-08T11:01:26.853Z,6.38
2023-03-08T11:04:16.250Z,6.32
2023-03-08T11:06:44.850Z,6.24
2023-03-08T11:09:26.654Z,6.16
2023-03-08T11:11:57.315Z,6.10
2023-03-08T11:14:27.833Z,6.04
2023-03-08T11:17:13.087Z,6.02
2023-03-08T11:20:08.012Z,5.95
2023-03-08T11:23:41.324Z,5.86
2023-03-08T11:26:35.737Z,5.78
2023-03-08T11:29:27.195Z,5.82
2023-03-08T11:32:18.590Z,5.95
2023-03-08T11:35:04.532Z,6.15
2023-03-08T11:37:46.593Z,6.33
2023-03-08T11:40:22.427Z,6.55
2023-03-08T11:43:21.220Z,6.78
2023-03-08T11:46:24.705Z,7.05
2023-03-08T11:49:22.247Z,7.31
2023-03-08T11:51:59.925Z,7.49
2023-03-08T11:55:07.673Z,7.65
2023-03-08T11:57:42.993Z,7.96
2023-03-08T12:00:23.719Z,8.25
2023-03-08T12:02:54.344Z,8.49
2023-03-08T12:05:51.099Z,8.70
2023-03-08T12:08:44.189Z,8.92
2023-03-08T12:11:26.264Z,9.05
2023-03-08T12:14:23.196Z,9.11
2023-03-08T12:17:08.096Z,9.13
2023-03-08T12:19:43.984Z,9.17
2023-03-08T12:22:39.325Z,9.22
2023-03-08T12:25:20.995Z,9.24
2023-03-08T12:28:00.129Z,9.21
2023-03-08T12:30:49.705Z,9.17
2023-03-08T12:33:19.011Z,9.13
2023-03-08T12:36:07.030Z,9.06
2023-03-08T12:38:41.017Z,8.97
2023-03-08T12:41:31.128Z,8.84
2023-03-08T12:44:23.766Z,8.73
2023-03-08T12:47:03.477Z,8.71
2023-03-08T12:49:42.421Z,8.73
2023-03-08T12:52:19.842Z,8.79
2023-03-08T12:55:01.052Z,8.89
2023-03-08T12:57:45.862Z,8.95
2023-03-08T13:00:20.189Z,8.98
2023-03-08T13:03:25.754Z,8.99
2023-03-08T13:05:54.285Z,9.03
2023-03-08T13:08:41.642Z,9.04
2023-03-08T13:11:15.073Z,9.11
2023-03-08T13:14:01.030Z,9.23
2023-03-08T13:16:39.182Z,9.30
2023-03-08T13:19:13.786Z,9.35
2023-03-08T13:22:01.271Z,9.38
2023-03-08T13:24:56.844Z,9.41
2023-03-08T13:27:46.035Z,9.42
2023-03-08T13:30:33.724Z,9.40
2023-03-08T13:33:09.519Z,9.39
2023-03-08T13:35:38.127Z,9.38
2023-03-08T13:38:06.726Z,9.39
2023-03-08T13:40:37.822Z,9.42
2023-03-08T13:43:28.383Z,9.48
2023-03-08T13:46:04.594Z,9.52
2023-03-08T13:48:35.666Z,9.50
2023-03-08T13:51:04.426Z,9.44
2023-03-08T13:53:37.511Z,9.40
2023-03-08T13:56:07.705Z,9.34
2023-03-08T13:58:46.052Z,9.25
2023-03-08T14:01:22.427Z,9.18
2023-03-08T14:03:55.019Z,9.12
2023-03-08T14:06:30.119Z,9.05
2023-03-08T14:09:03.601Z,9.01
2023-03-08T14:11:36.716Z,8.95
2023-03-08T14:14:14.429Z,8.88
2023-03-08T14:16:43.645Z,8.81
2023-03-08T14:19:24.574Z,8.78
2023-03-08T14:22:00.282Z,8.73
2023-03-08T14:24:35.242Z,8.68
2023-03-08T14:27:15.645Z,8.59
2023-03-08T14:29:45.622Z,8.48
2023-03-08T14:32:14.286Z,8.42
2023-03-08T14:34:46.534Z,8.38
2023-03-08T14:37:31.340Z,8.34
2023-03-08T14:40:21.947Z,8.26
2023-03-08T14:42:57.367Z,8.21
2023-03-08T14:45:39.528Z,8.15
2023-03-08T14:48:34.457Z,8.07
2023-03-08T14:51:16.174Z,8.02
2023-03-08T14:53:57.051Z,7.95
2023-03-08T14:56:25.632Z,7.88
2023-03-08T14:58:54.057Z,7.80
2023-03-08T15:01:35.601Z,7.73
2023-03-08T15:04:16.574Z,7.67
2023-03-08T15:06:46.333Z,7.61
2023-03-08T15:09:19.321Z,7.53
2023-03-08T15:11:51.354Z,7.47
2023-03-08T15:14:19.720Z,7.41
2023-03-08T15:16:48.182Z,7.33
2023-03-08T15:19:16.725Z,7.26
2023-03-08T15:21:45.147Z,7.19
2023-03-08T15:24:18.790Z,7.15
2023-03-08T15:26:48.055Z,7.12
2023-03-08T15:29:32.731Z,7.08
2023-03-08T15:32:01.137Z,7.04
2023-03-08T15:34:29.522Z,6.98
2023-03-08T15:36:58.087Z,6.89
2023-03-08T15:39:26.553Z,6.84
2023-03-08T15:41:54.961Z,6.80
2023-03-08T15:44:23.306Z,6.74
2023-03-08T15:46:52.968Z,6.68
2023-03-08T15:49:21.424Z,6.61
2023-03-08T15:51:49.827Z,6.58
2023-03-08T15:54:18.156Z,6.54
2023-03-08T15:56:46.501Z,6.52
2023-03-08T15:59:15.064Z,6.49
2023-03-08T16:01:43.404Z,6.44
2023-03-08T16:04:11.713Z,6.39
2023-03-08T16:06:43.727Z,6.35
2023-03-08T16:09:12.148Z,6.30
2023-03-08T16:11:40.613Z,6.24
2023-03-08T16:14:08.964Z,6.20
2023-03-08T16:16:45.321Z,6.17
2023-03-08T16:19:14.335Z,6.12
2023-03-08T16:21:42.733Z,6.10
2023-03-08T16:24:11.786Z,6.07
2023-03-08T16:26:40.238Z,6.05
2023-03-08T16:29:09.740Z,6.01
2023-03-08T16:31:38.140Z,5.95
2023-03-08T16:34:06.708Z,5.90
2023-03-08T16:36:35.238Z,5.85
2023-03-08T16:39:05.779Z,5.82
2023-03-08T16:41:38.050Z,5.80
2023-03-08T16:44:07.447Z,5.76
2023-03-08T16:46:36.643Z,5.70
2023-03-08T16:49:04.983Z,5.66
2023-03-08T16:51:33.347Z,5.63
2023-03-08T16:54:01.734Z,5.59
2023-03-08T16:56:30.491Z,5.57
2023-03-08T16:59:01.071Z,5.54
2023-03-08T17:01:31.379Z,5.50
2023-03-08T17:04:00.176Z,5.47
2023-03-08T17:06:32.152Z,5.46
2023-03-08T17:09:01.192Z,5.44
2023-03-08T17:11:35.705Z,5.42
2023-03-08T17:14:10.849Z,5.40
2023-03-08T17:16:43.460Z,5.37
2023-03-08T17:19:13.253Z,5.34
2023-03-08T17:21:41.688Z,5.31
2023-03-08T17:24:14.438Z,5.29
2023-03-08T17:26:46.596Z,5.28
2023-03-08T17:29:15.280Z,5.27
2023-03-08T17:31:44.322Z,5.26
2023-03-08T17:34:13.852Z,5.24
2023-03-08T17:36:44.581Z,5.22
2023-03-08T17:39:14.212Z,5.20
2023-03-08T17:41:44.671Z,5.17
2023-03-08T17:44:13.986Z,5.16
2023-03-08T17:46:42.572Z,5.14
2023-03-08T17:49:13.096Z,5.12
2023-03-08T17:51:42.559Z,5.10
2023-03-08T17:54:11.843Z,5.06
2023-03-08T17:56:41.035Z,5.03
2023-03-08T17:59:17.484Z,5.01
2023-03-08T18:01:45.878Z,4.99
2023-03-08T18:04:14.544Z,4.99
2023-03-08T18:06:43.552Z,4.99
2023-03-08T18:09:15.756Z,4.99
2023-03-08T18:11:44.451Z,4.96
2023-03-08T18:17:24.355Z,4.96
2023-03-08T18:19:52.764Z,4.94
2023-03-08T18:22:21.122Z,4.92
2023-03-08T18:24:49.406Z,4.91
2023-03-08T18:27:17.877Z,4.89
2023-03-08T18:29:46.235Z,4.88
2023-03-08T18:32:14.585Z,4.88
2023-03-08T18:34:43.183Z,4.86
2023-03-08T18:37:11.831Z,4.85
2023-03-08T18:39:40.259Z,4.86
2023-03-08T18:42:08.713Z,4.85
2023-03-08T18:44:38.674Z,4.85
2023-03-08T18:47:07.296Z,4.86
2023-03-08T18:49:35.595Z,4.86
2023-03-08T18:52:05.188Z,4.86
2023-03-08T18:54:34.205Z,4.85
2023-03-08T18:57:02.613Z,4.86
2023-03-08T18:59:33.341Z,4.86
2023-03-08T19:02:01.926Z,4.86
2023-03-08T19:04:30.425Z,4.87
2023-03-08T19:06:58.889Z,4.87
2023-03-08T19:09:27.342Z,4.87
2023-03-08T19:11:55.696Z,4.86
2023-03-08T19:14:24.173Z,4.86
2023-03-08T19:16:52.590Z,4.86
2023-03-08T19:19:21.515Z,4.85
2023-03-08T19:21:50.000Z,4.85
2023-03-08T19:24:20.539Z,4.84
2023-03-08T19:26:57.329Z,4.84
2023-03-08T19:29:32.169Z,4.84
2023-03-08T19:32:07.042Z,4.83
2023-03-08T19:34:42.208Z,4.83
2023-03-08T19:37:13.463Z,4.83
2023-03-08T19:39:43.664Z,4.85
2023-03-08T19:42:15.439Z,4.85
2023-03-08T19:44:48.525Z,4.86
2023-03-08T19:47:20.039Z,4.88
2023-03-08T19:49:49.590Z,4.89
2023-03-08T19:52:18.108Z,4.91
2023-03-08T19:54:46.672Z,4.92
2023-03-08T19:57:15.108Z,4.93
2023-03-08T19:59:43.402Z,4.94
2023-03-08T20:02:12.700Z,4.94
2023-03-08T20:04:41.114Z,4.95
2023-03-08T20:07:09.698Z,4.96
2023-03-08T20:09:38.214Z,4.97
2023-03-08T20:12:06.637Z,4.96
2023-03-08T20:14:36.573Z,4.94
2023-03-08T20:17:05.292Z,4.92
2023-03-08T20:19:34.256Z,4.91
2023-03-08T20:22:52.418Z,4.94
2023-03-08T20:25:20.821Z,4.91
2023-03-08T20:27:49.173Z,4.93
2023-03-08T20:30:18.385Z,4.94
2023-03-08T20:32:46.916Z,4.94
2023-03-08T20:46:55.327Z,4.91
2023-03-08T20:49:24.332Z,4.89
2023-03-08T20:51:52.679Z,4.90
2023-03-08T20:54:21.137Z,4.91
2023-03-08T20:59:05.984Z,4.93
2023-03-08T21:01:34.359Z,4.90
2023-03-08T21:04:03.166Z,4.90
2023-03-08T21:06:32.106Z,4.89
2023-03-08T21:09:01.796Z,4.87
2023-03-08T21:11:30.228Z,4.84
2023-03-08T21:13:58.800Z,4.81
2023-03-08T21:16:28.792Z,4.79
2023-03-08T21:19:01.526Z,4.77
2023-03-08T21:21:36.046Z,4.75
2023-03-08T21:27:00.770Z,4.73
2023-03-08T21:29:30.101Z,4.70
2023-03-08T21:31:59.451Z,4.68
2023-03-08T21:34:28.009Z,4.64
2023-03-08T21:36:56.711Z,4.62
2023-03-08T21:39:26.902Z,4.60
2023-03-08T21:41:57.095Z,4.58
2023-03-08T21:44:25.748Z,4.59
2023-03-08T21:46:55.464Z,4.58
2023-03-08T21:49:30.958Z,4.57
2023-03-08T21:51:59.784Z,4.56
2023-03-08T21:54:31.083Z,4.57
2023-03-08T21:56:59.957Z,4.57
2023-03-08T21:59:29.274Z,4.58
2023-03-08T22:01:58.801Z,4.60
2023-03-08T22:04:28.241Z,4.61
2023-03-08T22:06:57.240Z,4.62
2023-03-08T22:09:28.161Z,4.63
2023-03-08T22:12:00.029Z,4.63
2023-03-08T22:14:28.776Z,4.63
2023-03-08T22:16:57.597Z,4.63
2023-03-08T22:19:26.393Z,4.64
2023-03-08T22:21:54.797Z,4.65
2023-03-08T22:24:23.212Z,4.66
2023-03-08T22:26:51.577Z,4.68
2023-03-08T22:29:20.036Z,4.69
2023-03-08T22:31:48.482Z,4.70
2023-03-08T22:34:17.151Z,4.72
2023-03-08T22:36:45.502Z,4.73
2023-03-08T22:39:13.878Z,4.74
2023-03-08T22:41:42.293Z,4.74
2023-03-08T22:57:16.361Z,5.17
2023-03-08T22:59:47.879Z,5.20
2023-03-08T23:02:16.253Z,5.17
2023-03-08T23:04:44.746Z,5.14
2023-03-08T23:07:13.147Z,5.12
2023-03-08T23:09:41.741Z,5.10
2023-03-08T23:12:10.068Z,5.08
2023-03-08T23:16:12.695Z,5.06
2023-03-08T23:18:59.237Z,5.04
2023-03-08T23:21:30.025Z,5.01
2023-03-08T23:25:25.837Z,5.00
2023-03-08T23:27:55.038Z,4.96
2023-03-08T23:30:23.940Z,4.95
2023-03-08T23:32:52.709Z,4.94
2023-03-08T23:35:21.759Z,4.94
2023-03-08T23:37:50.814Z,4.93
2023-03-08T23:40:19.563Z,4.91
2023-03-08T23:42:47.981Z,4.91
2023-03-08T23:45:16.398Z,4.90
2023-03-08T23:47:44.699Z,4.90
2023-03-08T23:50:13.053Z,4.90
2023-03-08T23:52:41.440Z,4.89
2023-03-08T23:55:11.211Z,4.89
2023-03-08T23:57:39.667Z,4.88
